sensor_id;sensor_type;location;lat;lon;timestamp;P1;durP1;ratioP1;P2;durP2;ratioP2
2564;SDS011;1292;48.020;7.822;2022-10-16T05:45:40;3.93;;;1.73;;
2564;SDS011;1292;48.020;7.822;2022-10-16T05:48:07;2.27;;;2.00;;
2564;SDS011;1292;48.020;7.822;2022-10-16T05:50:34;2.47;;;1.60;;
2564;SDS011;1292;48.020;7.822;2022-10-16T05:53:01;3.90;;;2.07;;
2564;SDS011;1292;48.020;7.822;2022-10-16T05:55:28;1.63;;;1.53;;
2564;SDS011;1292;48.020;7.822;2022-10-16T05:57:55;3.90;;;1.60;;
2564;SDS011;1292;48.020;7.822;2022-10-16T06:00:21;3.80;;;1.50;;
2564;SDS011;1292;48.020;7.822;2022-10-16T06:02:50;2.10;;;1.30;;
2564;SDS011;1292;48.020;7.822;2022-10-16T06:05:16;9.60;;;2.07;;
2564;SDS011;1292;48.020;7.822;2022-10-16T06:07:43;11.83;;;2.13;;
2564;SDS011;1292;48.020;7.822;2022-10-16T06:10:10;1.53;;;1.43;;
2564;SDS011;1292;48.020;7.822;2022-10-16T06:12:37;4.60;;;1.70;;
2564;SDS011;1292;48.020;7.822;2022-10-16T06:15:04;3.93;;;1.73;;
2564;SDS011;1292;48.020;7.822;2022-10-16T06:17:31;2.20;;;2.00;;
2564;SDS011;1292;48.020;7.822;2022-10-16T06:19:59;5.40;;;2.40;;
2564;SDS011;1292;48.020;7.822;2022-10-16T06:22:26;1.90;;;1.70;;
2564;SDS011;1292;48.020;7.822;2022-10-16T06:24:53;2.83;;;2.20;;
2564;SDS011;1292;48.020;7.822;2022-10-16T06:27:20;2.50;;;2.30;;
2564;SDS011;1292;48.020;7.822;2022-10-16T06:29:46;2.60;;;1.97;;
2564;SDS011;1292;48.020;7.822;2022-10-16T06:32:13;2.27;;;1.83;;
2564;SDS011;1292;48.020;7.822;2022-10-16T06:34:40;3.43;;;2.10;;
2564;SDS011;1292;48.020;7.822;2022-10-16T06:37:08;4.53;;;2.00;;
2564;SDS011;1292;48.020;7.822;2022-10-16T06:39:35;2.27;;;1.70;;
2564;SDS011;1292;48.020;7.822;2022-10-16T06:42:02;3.90;;;2.43;;
2564;SDS011;1292;48.020;7.822;2022-10-16T06:44:29;2.80;;;2.10;;
2564;SDS011;1292;48.020;7.822;2022-10-16T06:46:56;4.93;;;2.10;;
2564;SDS011;1292;48.020;7.822;2022-10-16T06:49:22;2.03;;;1.83;;
2564;SDS011;1292;48.020;7.822;2022-10-16T06:51:49;1.93;;;1.83;;
2564;SDS011;1292;48.020;7.822;2022-10-16T06:54:17;1.90;;;1.80;;
2564;SDS011;1292;48.020;7.822;2022-10-16T06:56:44;2.87;;;1.90;;
2564;SDS011;1292;48.020;7.822;2022-10-16T06:59:11;5.00;;;2.03;;
2564;SDS011;1292;48.020;7.822;2022-10-16T07:01:38;3.97;;;2.00;;
2564;SDS011;1292;48.020;7.822;2022-10-16T07:04:05;3.47;;;1.70;;
2564;SDS011;1292;48.020;7.822;2022-10-16T07:06:33;1.83;;;1.70;;
2564;SDS011;1292;48.020;7.822;2022-10-16T07:09:01;2.73;;;2.13;;
2564;SDS011;1292;48.020;7.822;2022-10-16T07:11:32;3.97;;;1.80;;
2564;SDS011;1292;48.020;7.822;2022-10-16T07:13:59;4.10;;;2.60;;
2564;SDS011;1292;48.020;7.822;2022-10-16T07:16:27;2.70;;;2.50;;
2564;SDS011;1292;48.020;7.822;2022-10-16T07:18:55;2.60;;;1.30;;
2564;SDS011;1292;48.020;7.822;2022-10-16T07:21:24;1.60;;;1.50;;
2564;SDS011;1292;48.020;7.822;2022-10-16T07:23:54;3.90;;;2.80;;
2564;SDS011;1292;48.020;7.822;2022-10-16T07:26:22;2.40;;;2.20;;
2564;SDS011;1292;48.020;7.822;2022-10-16T07:28:51;4.93;;;2.70;;
2564;SDS011;1292;48.020;7.822;2022-10-16T07:31:18;2.60;;;2.40;;
2564;SDS011;1292;48.020;7.822;2022-10-16T07:33:46;2.60;;;1.93;;
2564;SDS011;1292;48.020;7.822;2022-10-16T07:36:14;4.17;;;2.23;;
2564;SDS011;1292;48.020;7.822;2022-10-16T07:38:42;1.90;;;1.80;;
2564;SDS011;1292;48.020;7.822;2022-10-16T07:41:11;5.63;;;2.37;;
2564;SDS011;1292;48.020;7.822;2022-10-16T07:43:39;2.67;;;2.40;;
2564;SDS011;1292;48.020;7.822;2022-10-16T07:46:07;8.00;;;2.60;;
2564;SDS011;1292;48.020;7.822;2022-10-16T07:48:34;2.03;;;1.93;;
2564;SDS011;1292;48.020;7.822;2022-10-16T07:51:02;3.30;;;3.00;;
2564;SDS011;1292;48.020;7.822;2022-10-16T07:53:30;3.30;;;3.00;;
2564;SDS011;1292;48.020;7.822;2022-10-16T07:55:58;5.87;;;3.30;;
2564;SDS011;1292;48.020;7.822;2022-10-16T07:58:26;8.10;;;4.27;;
2564;SDS011;1292;48.020;7.822;2022-10-16T08:00:53;3.10;;;2.30;;
2564;SDS011;1292;48.020;7.822;2022-10-16T08:03:21;4.10;;;3.80;;
2564;SDS011;1292;48.020;7.822;2022-10-16T08:05:48;6.00;;;3.83;;
2564;SDS011;1292;48.020;7.822;2022-10-16T08:08:17;4.20;;;3.80;;
2564;SDS011;1292;48.020;7.822;2022-10-16T08:10:44;4.23;;;3.80;;
2564;SDS011;1292;48.020;7.822;2022-10-16T08:13:11;4.73;;;3.70;;
2564;SDS011;1292;48.020;7.822;2022-10-16T08:15:40;3.13;;;2.60;;
2564;SDS011;1292;48.020;7.822;2022-10-16T08:18:07;3.73;;;3.00;;
2564;SDS011;1292;48.020;7.822;2022-10-16T08:20:36;2.90;;;2.70;;
2564;SDS011;1292;48.020;7.822;2022-10-16T08:23:04;3.17;;;2.87;;
2564;SDS011;1292;48.020;7.822;2022-10-16T08:25:33;3.70;;;2.67;;
2564;SDS011;1292;48.020;7.822;2022-10-16T08:28:02;3.57;;;2.00;;
2564;SDS011;1292;48.020;7.822;2022-10-16T08:30:30;2.70;;;1.90;;
2564;SDS011;1292;48.020;7.822;2022-10-16T08:32:56;1.60;;;1.50;;
2564;SDS011;1292;48.020;7.822;2022-10-16T08:35:24;2.07;;;1.60;;
2564;SDS011;1292;48.020;7.822;2022-10-16T08:37:52;4.73;;;1.80;;
2564;SDS011;1292;48.020;7.822;2022-10-16T08:40:20;3.17;;;1.80;;
2564;SDS011;1292;48.020;7.822;2022-10-16T08:42:53;2.10;;;1.53;;
2564;SDS011;1292;48.020;7.822;2022-10-16T08:45:44;1.87;;;1.20;;
2564;SDS011;1292;48.020;7.822;2022-10-16T08:48:30;2.30;;;1.77;;
2564;SDS011;1292;48.020;7.822;2022-10-16T08:51:03;2.03;;;1.63;;
2564;SDS011;1292;48.020;7.822;2022-10-16T08:53:33;2.13;;;2.03;;
2564;SDS011;1292;48.020;7.822;2022-10-16T08:56:06;1.67;;;1.53;;
2564;SDS011;1292;48.020;7.822;2022-10-16T08:58:33;4.33;;;2.40;;
2564;SDS011;1292;48.020;7.822;2022-10-16T09:01:01;2.77;;;2.57;;
2564;SDS011;1292;48.020;7.822;2022-10-16T09:03:39;10.70;;;6.90;;
2564;SDS011;1292;48.020;7.822;2022-10-16T09:06:24;12.27;;;8.03;;
2564;SDS011;1292;48.020;7.822;2022-10-16T09:09:28;25.37;;;13.70;;
2564;SDS011;1292;48.020;7.822;2022-10-16T09:12:08;23.10;;;12.27;;
2564;SDS011;1292;48.020;7.822;2022-10-16T09:14:47;14.23;;;8.00;;
2564;SDS011;1292;48.020;7.822;2022-10-16T09:17:22;11.23;;;7.43;;
2564;SDS011;1292;48.020;7.822;2022-10-16T09:20:09;10.60;;;6.30;;
2564;SDS011;1292;48.020;7.822;2022-10-16T09:22:45;4.30;;;2.93;;
2564;SDS011;1292;48.020;7.822;2022-10-16T09:25:14;3.90;;;2.47;;
2564;SDS011;1292;48.020;7.822;2022-10-16T09:27:44;3.90;;;2.60;;
2564;SDS011;1292;48.020;7.822;2022-10-16T09:30:14;3.40;;;2.87;;
2564;SDS011;1292;48.020;7.822;2022-10-16T09:32:43;6.47;;;4.37;;
2564;SDS011;1292;48.020;7.822;2022-10-16T09:35:13;5.33;;;2.90;;
2564;SDS011;1292;48.020;7.822;2022-10-16T09:37:41;2.70;;;1.93;;
2564;SDS011;1292;48.020;7.822;2022-10-16T09:40:12;3.63;;;1.53;;
2564;SDS011;1292;48.020;7.822;2022-10-16T09:42:49;1.87;;;1.70;;
2564;SDS011;1292;48.020;7.822;2022-10-16T09:45:23;1.93;;;1.20;;
2564;SDS011;1292;48.020;7.822;2022-10-16T09:47:50;1.93;;;1.20;;
2564;SDS011;1292;48.020;7.822;2022-10-16T09:50:22;1.90;;;1.10;;
2564;SDS011;1292;48.020;7.822;2022-10-16T09:52:51;2.10;;;1.27;;
2564;SDS011;1292;48.020;7.822;2022-10-16T09:55:31;6.10;;;4.83;;
2564;SDS011;1292;48.020;7.822;2022-10-16T09:57:58;4.70;;;3.63;;
2564;SDS011;1292;48.020;7.822;2022-10-16T10:00:25;2.93;;;2.27;;
2564;SDS011;1292;48.020;7.822;2022-10-16T10:02:52;8.90;;;4.77;;
2564;SDS011;1292;48.020;7.822;2022-10-16T10:05:20;4.60;;;3.07;;
2564;SDS011;1292;48.020;7.822;2022-10-16T10:07:53;2.90;;;2.43;;
2564;SDS011;1292;48.020;7.822;2022-10-16T10:10:23;1.97;;;1.70;;
2564;SDS011;1292;48.020;7.822;2022-10-16T10:12:52;2.80;;;1.20;;
2564;SDS011;1292;48.020;7.822;2022-10-16T10:15:20;2.97;;;1.23;;
2564;SDS011;1292;48.020;7.822;2022-10-16T10:17:49;2.13;;;1.30;;
2564;SDS011;1292;48.020;7.822;2022-10-16T10:20:25;2.83;;;1.27;;
2564;SDS011;1292;48.020;7.822;2022-10-16T10:22:54;1.13;;;1.03;;
2564;SDS011;1292;48.020;7.822;2022-10-16T10:25:26;2.03;;;1.13;;
2564;SDS011;1292;48.020;7.822;2022-10-16T10:28:14;1.93;;;1.03;;
2564;SDS011;1292;48.020;7.822;2022-10-16T10:30:52;1.70;;;1.13;;
2564;SDS011;1292;48.020;7.822;2022-10-16T10:33:28;2.80;;;1.40;;
2564;SDS011;1292;48.020;7.822;2022-10-16T10:36:04;2.20;;;1.07;;
2564;SDS011;1292;48.020;7.822;2022-10-16T10:38:39;3.73;;;1.83;;
2564;SDS011;1292;48.020;7.822;2022-10-16T10:41:26;2.00;;;1.63;;
2564;SDS011;1292;48.020;7.822;2022-10-16T10:44:11;1.80;;;1.60;;
2564;SDS011;1292;48.020;7.822;2022-10-16T10:49:19;2.40;;;2.07;;
2564;SDS011;1292;48.020;7.822;2022-10-16T10:52:02;2.70;;;1.60;;
2564;SDS011;1292;48.020;7.822;2022-10-16T10:54:41;2.00;;;1.80;;
2564;SDS011;1292;48.020;7.822;2022-10-16T10:57:19;1.20;;;1.10;;
2564;SDS011;1292;48.020;7.822;2022-10-16T10:59:58;4.57;;;1.33;;
2564;SDS011;1292;48.020;7.822;2022-10-16T11:02:38;2.07;;;1.20;;
2564;SDS011;1292;48.020;7.822;2022-10-16T11:05:22;1.53;;;1.43;;
2564;SDS011;1292;48.020;7.822;2022-10-16T11:07:57;1.13;;;1.03;;
2564;SDS011;1292;48.020;7.822;2022-10-16T11:10:27;5.47;;;1.37;;
2564;SDS011;1292;48.020;7.822;2022-10-16T11:13:00;1.30;;;1.20;;
2564;SDS011;1292;48.020;7.822;2022-10-16T11:15:38;2.40;;;1.07;;
2564;SDS011;1292;48.020;7.822;2022-10-16T11:18:08;0.90;;;0.90;;
2564;SDS011;1292;48.020;7.822;2022-10-16T11:20:42;1.13;;;1.03;;
2564;SDS011;1292;48.020;7.822;2022-10-16T11:23:16;2.47;;;1.30;;
2564;SDS011;1292;48.020;7.822;2022-10-16T11:25:47;1.10;;;1.00;;
2564;SDS011;1292;48.020;7.822;2022-10-16T11:28:16;1.03;;;0.93;;
2564;SDS011;1292;48.020;7.822;2022-10-16T11:30:49;1.07;;;0.97;;
2564;SDS011;1292;48.020;7.822;2022-10-16T11:33:27;1.03;;;0.93;;
2564;SDS011;1292;48.020;7.822;2022-10-16T11:36:00;2.10;;;1.30;;
2564;SDS011;1292;48.020;7.822;2022-10-16T11:38:34;1.03;;;1.00;;
2564;SDS011;1292;48.020;7.822;2022-10-16T11:41:09;1.80;;;1.07;;
2564;SDS011;1292;48.020;7.822;2022-10-16T11:43:46;1.10;;;1.00;;
2564;SDS011;1292;48.020;7.822;2022-10-16T11:46:20;5.50;;;1.10;;
2564;SDS011;1292;48.020;7.822;2022-10-16T11:48:51;1.70;;;1.60;;
2564;SDS011;1292;48.020;7.822;2022-10-16T11:51:25;1.00;;;1.00;;
2564;SDS011;1292;48.020;7.822;2022-10-16T11:53:58;1.30;;;1.20;;
2564;SDS011;1292;48.020;7.822;2022-10-16T11:56:28;1.57;;;0.90;;
2564;SDS011;1292;48.020;7.822;2022-10-16T11:58:58;1.90;;;1.40;;
2564;SDS011;1292;48.020;7.822;2022-10-16T12:01:32;1.13;;;1.03;;
2564;SDS011;1292;48.020;7.822;2022-10-16T12:04:12;3.10;;;1.33;;
2564;SDS011;1292;48.020;7.822;2022-10-16T12:06:46;1.73;;;1.20;;
2564;SDS011;1292;48.020;7.822;2022-10-16T12:09:20;2.10;;;1.80;;
2564;SDS011;1292;48.020;7.822;2022-10-16T12:11:50;2.53;;;1.20;;
2564;SDS011;1292;48.020;7.822;2022-10-16T12:14:19;1.70;;;0.90;;
2564;SDS011;1292;48.020;7.822;2022-10-16T12:16:53;3.27;;;1.00;;
2564;SDS011;1292;48.020;7.822;2022-10-16T12:19:21;1.10;;;1.00;;
2564;SDS011;1292;48.020;7.822;2022-10-16T12:21:49;2.37;;;1.10;;
2564;SDS011;1292;48.020;7.822;2022-10-16T12:24:21;6.63;;;1.80;;
2564;SDS011;1292;48.020;7.822;2022-10-16T12:26:59;2.80;;;1.60;;
2564;SDS011;1292;48.020;7.822;2022-10-16T12:29:30;1.40;;;1.30;;
2564;SDS011;1292;48.020;7.822;2022-10-16T12:32:01;3.23;;;1.50;;
2564;SDS011;1292;48.020;7.822;2022-10-16T12:34:32;8.60;;;1.90;;
2564;SDS011;1292;48.020;7.822;2022-10-16T12:37:08;2.70;;;1.50;;
2564;SDS011;1292;48.020;7.822;2022-10-16T12:39:39;3.00;;;1.03;;
2564;SDS011;1292;48.020;7.822;2022-10-16T12:42:19;3.70;;;1.47;;
2564;SDS011;1292;48.020;7.822;2022-10-16T12:44:48;2.50;;;1.33;;
2564;SDS011;1292;48.020;7.822;2022-10-16T12:47:23;2.47;;;1.27;;
2564;SDS011;1292;48.020;7.822;2022-10-16T12:50:02;3.23;;;1.60;;
2564;SDS011;1292;48.020;7.822;2022-10-16T12:52:34;1.53;;;1.43;;
2564;SDS011;1292;48.020;7.822;2022-10-16T12:55:04;1.37;;;1.27;;
2564;SDS011;1292;48.020;7.822;2022-10-16T12:57:38;2.03;;;1.40;;
2564;SDS011;1292;48.020;7.822;2022-10-16T13:00:13;2.00;;;1.30;;
2564;SDS011;1292;48.020;7.822;2022-10-16T13:02:52;2.83;;;1.20;;
2564;SDS011;1292;48.020;7.822;2022-10-16T13:05:33;1.73;;;1.47;;
2564;SDS011;1292;48.020;7.822;2022-10-16T13:08:15;2.00;;;1.80;;
2564;SDS011;1292;48.020;7.822;2022-10-16T13:10:54;2.77;;;1.70;;
2564;SDS011;1292;48.020;7.822;2022-10-16T13:16:21;1.13;;;1.03;;
2564;SDS011;1292;48.020;7.822;2022-10-16T13:18:58;1.97;;;1.87;;
2564;SDS011;1292;48.020;7.822;2022-10-16T13:21:38;2.23;;;1.50;;
2564;SDS011;1292;48.020;7.822;2022-10-16T13:24:25;1.47;;;1.17;;
2564;SDS011;1292;48.020;7.822;2022-10-16T13:27:07;1.40;;;1.30;;
2564;SDS011;1292;48.020;7.822;2022-10-16T13:29:41;1.30;;;1.20;;
2564;SDS011;1292;48.020;7.822;2022-10-16T13:32:09;7.77;;;1.53;;
2564;SDS011;1292;48.020;7.822;2022-10-16T13:34:44;2.10;;;0.97;;
2564;SDS011;1292;48.020;7.822;2022-10-16T13:37:16;1.47;;;1.13;;
2564;SDS011;1292;48.020;7.822;2022-10-16T13:39:44;1.40;;;1.30;;
2564;SDS011;1292;48.020;7.822;2022-10-16T13:42:12;1.20;;;1.10;;
2564;SDS011;1292;48.020;7.822;2022-10-16T13:44:41;1.30;;;1.20;;
2564;SDS011;1292;48.020;7.822;2022-10-16T13:47:15;1.40;;;1.30;;
2564;SDS011;1292;48.020;7.822;2022-10-16T13:49:45;1.47;;;1.37;;
2564;SDS011;1292;48.020;7.822;2022-10-16T13:52:16;2.23;;;1.20;;
2564;SDS011;1292;48.020;7.822;2022-10-16T13:54:45;1.60;;;1.07;;
2564;SDS011;1292;48.020;7.822;2022-10-16T13:57:13;5.37;;;2.07;;
2564;SDS011;1292;48.020;7.822;2022-10-16T13:59:40;1.70;;;1.40;;
2564;SDS011;1292;48.020;7.822;2022-10-16T14:02:09;1.30;;;1.20;;
2564;SDS011;1292;48.020;7.822;2022-10-16T14:04:47;3.40;;;1.00;;
2564;SDS011;1292;48.020;7.822;2022-10-16T14:07:18;1.80;;;1.20;;
2564;SDS011;1292;48.020;7.822;2022-10-16T14:09:50;2.93;;;1.40;;
2564;SDS011;1292;48.020;7.822;2022-10-16T14:12:18;2.23;;;1.00;;
2564;SDS011;1292;48.020;7.822;2022-10-16T14:14:46;5.33;;;1.30;;
2564;SDS011;1292;48.020;7.822;2022-10-16T14:17:15;1.10;;;1.00;;
2564;SDS011;1292;48.020;7.822;2022-10-16T14:19:45;1.53;;;1.30;;
2564;SDS011;1292;48.020;7.822;2022-10-16T14:22:21;2.40;;;1.33;;
2564;SDS011;1292;48.020;7.822;2022-10-16T14:24:54;2.63;;;1.50;;
2564;SDS011;1292;48.020;7.822;2022-10-16T14:27:23;1.57;;;1.40;;
2564;SDS011;1292;48.020;7.822;2022-10-16T14:30:05;2.70;;;1.67;;
2564;SDS011;1292;48.020;7.822;2022-10-16T14:32:52;1.90;;;1.40;;
2564;SDS011;1292;48.020;7.822;2022-10-16T14:35:29;1.37;;;1.23;;
2564;SDS011;1292;48.020;7.822;2022-10-16T14:37:57;1.10;;;1.00;;
2564;SDS011;1292;48.020;7.822;2022-10-16T14:40:27;2.20;;;1.13;;
2564;SDS011;1292;48.020;7.822;2022-10-16T14:42:55;2.00;;;1.40;;
2564;SDS011;1292;48.020;7.822;2022-10-16T14:45:24;1.13;;;1.07;;
2564;SDS011;1292;48.020;7.822;2022-10-16T14:47:54;1.83;;;1.10;;
2564;SDS011;1292;48.020;7.822;2022-10-16T14:50:22;2.13;;;1.27;;
2564;SDS011;1292;48.020;7.822;2022-10-16T14:52:51;4.43;;;1.47;;
2564;SDS011;1292;48.020;7.822;2022-10-16T14:55:18;1.27;;;1.10;;
2564;SDS011;1292;48.020;7.822;2022-10-16T14:57:45;2.53;;;1.60;;
2564;SDS011;1292;48.020;7.822;2022-10-16T15:00:15;2.03;;;1.47;;
2564;SDS011;1292;48.020;7.822;2022-10-16T15:02:45;1.53;;;1.43;;
2564;SDS011;1292;48.020;7.822;2022-10-16T15:05:14;1.20;;;1.20;;
2564;SDS011;1292;48.020;7.822;2022-10-16T15:07:43;2.50;;;1.13;;
2564;SDS011;1292;48.020;7.822;2022-10-16T15:10:12;1.67;;;1.47;;
2564;SDS011;1292;48.020;7.822;2022-10-16T15:12:40;1.73;;;1.10;;
2564;SDS011;1292;48.020;7.822;2022-10-16T15:15:15;3.03;;;1.37;;
2564;SDS011;1292;48.020;7.822;2022-10-16T15:17:53;2.00;;;1.43;;
2564;SDS011;1292;48.020;7.822;2022-10-16T15:20:22;1.47;;;1.37;;
2564;SDS011;1292;48.020;7.822;2022-10-16T15:22:49;3.30;;;1.77;;
2564;SDS011;1292;48.020;7.822;2022-10-16T15:25:27;2.57;;;2.37;;
2564;SDS011;1292;48.020;7.822;2022-10-16T15:27:57;2.60;;;2.40;;
2564;SDS011;1292;48.020;7.822;2022-10-16T15:30:25;5.13;;;3.90;;
2564;SDS011;1292;48.020;7.822;2022-10-16T15:32:52;4.10;;;3.10;;
2564;SDS011;1292;48.020;7.822;2022-10-16T15:35:19;3.87;;;2.07;;
2564;SDS011;1292;48.020;7.822;2022-10-16T15:37:46;2.37;;;1.80;;
2564;SDS011;1292;48.020;7.822;2022-10-16T15:40:14;1.70;;;1.60;;
2564;SDS011;1292;48.020;7.822;2022-10-16T15:42:43;1.60;;;1.50;;
2564;SDS011;1292;48.020;7.822;2022-10-16T15:45:10;1.70;;;1.60;;
2564;SDS011;1292;48.020;7.822;2022-10-16T15:47:38;2.20;;;2.00;;
2564;SDS011;1292;48.020;7.822;2022-10-16T15:50:06;6.40;;;1.63;;
2564;SDS011;1292;48.020;7.822;2022-10-16T15:52:35;4.13;;;1.57;;
2564;SDS011;1292;48.020;7.822;2022-10-16T15:55:02;2.57;;;1.83;;
2564;SDS011;1292;48.020;7.822;2022-10-16T15:57:29;1.60;;;1.50;;
2564;SDS011;1292;48.020;7.822;2022-10-16T15:59:57;3.17;;;1.47;;
2564;SDS011;1292;48.020;7.822;2022-10-16T16:02:24;2.10;;;1.30;;
2564;SDS011;1292;48.020;7.822;2022-10-16T16:04:51;2.10;;;1.60;;
2564;SDS011;1292;48.020;7.822;2022-10-16T16:07:18;2.00;;;1.87;;
2564;SDS011;1292;48.020;7.822;2022-10-16T16:09:45;2.70;;;2.03;;
2564;SDS011;1292;48.020;7.822;2022-10-16T16:12:12;14.23;;;2.20;;
2564;SDS011;1292;48.020;7.822;2022-10-16T16:14:39;2.00;;;1.90;;
2564;SDS011;1292;48.020;7.822;2022-10-16T16:17:07;7.10;;;1.77;;
2564;SDS011;1292;48.020;7.822;2022-10-16T16:19:34;5.43;;;1.83;;
2564;SDS011;1292;48.020;7.822;2022-10-16T16:22:01;1.57;;;1.43;;
2564;SDS011;1292;48.020;7.822;2022-10-16T16:24:28;6.70;;;2.47;;
2564;SDS011;1292;48.020;7.822;2022-10-16T16:26:55;3.33;;;3.03;;
2564;SDS011;1292;48.020;7.822;2022-10-16T16:29:22;3.70;;;2.33;;
2564;SDS011;1292;48.020;7.822;2022-10-16T16:31:49;5.43;;;1.67;;
2564;SDS011;1292;48.020;7.822;2022-10-16T16:34:23;2.13;;;1.57;;
2564;SDS011;1292;48.020;7.822;2022-10-16T16:36:50;3.10;;;1.73;;
2564;SDS011;1292;48.020;7.822;2022-10-16T16:39:17;1.93;;;1.73;;
2564;SDS011;1292;48.020;7.822;2022-10-16T16:41:44;1.70;;;1.60;;
2564;SDS011;1292;48.020;7.822;2022-10-16T16:44:12;2.43;;;2.23;;
2564;SDS011;1292;48.020;7.822;2022-10-16T16:46:40;1.70;;;1.50;;
2564;SDS011;1292;48.020;7.822;2022-10-16T16:49:08;7.40;;;1.80;;
2564;SDS011;1292;48.020;7.822;2022-10-16T16:51:37;2.13;;;1.93;;
2564;SDS011;1292;48.020;7.822;2022-10-16T16:54:05;3.43;;;2.43;;
2564;SDS011;1292;48.020;7.822;2022-10-16T16:56:33;2.23;;;1.90;;
2564;SDS011;1292;48.020;7.822;2022-10-16T16:59:00;2.13;;;2.00;;
2564;SDS011;1292;48.020;7.822;2022-10-16T17:01:27;2.70;;;2.10;;
2564;SDS011;1292;48.020;7.822;2022-10-16T17:03:55;7.87;;;2.30;;
2564;SDS011;1292;48.020;7.822;2022-10-16T17:06:23;2.57;;;1.90;;
2564;SDS011;1292;48.020;7.822;2022-10-16T17:08:53;2.30;;;2.07;;
2564;SDS011;1292;48.020;7.822;2022-10-16T17:11:20;4.40;;;2.33;;
2564;SDS011;1292;48.020;7.822;2022-10-16T17:13:49;3.57;;;2.40;;
2564;SDS011;1292;48.020;7.822;2022-10-16T17:16:17;2.40;;;2.23;;
2564;SDS011;1292;48.020;7.822;2022-10-16T17:18:44;1.97;;;1.87;;
2564;SDS011;1292;48.020;7.822;2022-10-16T17:21:11;7.03;;;2.30;;
2564;SDS011;1292;48.020;7.822;2022-10-16T17:23:38;2.00;;;1.90;;
2564;SDS011;1292;48.020;7.822;2022-10-16T17:26:07;5.50;;;2.70;;
2564;SDS011;1292;48.020;7.822;2022-10-16T17:28:36;2.60;;;2.40;;
2564;SDS011;1292;48.020;7.822;2022-10-16T17:31:07;6.23;;;2.50;;
2564;SDS011;1292;48.020;7.822;2022-10-16T17:33:35;2.10;;;1.93;;
2564;SDS011;1292;48.020;7.822;2022-10-16T17:36:02;4.30;;;2.07;;
2564;SDS011;1292;48.020;7.822;2022-10-16T17:38:29;2.10;;;1.93;;
2564;SDS011;1292;48.020;7.822;2022-10-16T17:40:56;1.90;;;1.80;;
2564;SDS011;1292;48.020;7.822;2022-10-16T17:43:25;3.83;;;2.20;;
2564;SDS011;1292;48.020;7.822;2022-10-16T17:45:52;4.40;;;2.77;;
2564;SDS011;1292;48.020;7.822;2022-10-16T17:48:19;2.90;;;2.33;;
2564;SDS011;1292;48.020;7.822;2022-10-16T17:50:46;2.03;;;1.90;;
2564;SDS011;1292;48.020;7.822;2022-10-16T17:53:13;2.60;;;2.20;;
2564;SDS011;1292;48.020;7.822;2022-10-16T17:55:40;6.17;;;2.27;;
2564;SDS011;1292;48.020;7.822;2022-10-16T17:58:07;4.63;;;2.30;;
2564;SDS011;1292;48.020;7.822;2022-10-16T18:00:36;3.20;;;1.77;;
2564;SDS011;1292;48.020;7.822;2022-10-16T18:03:03;2.80;;;2.60;;
2564;SDS011;1292;48.020;7.822;2022-10-16T18:05:30;5.53;;;2.40;;
2564;SDS011;1292;48.020;7.822;2022-10-16T18:07:57;3.23;;;2.50;;
2564;SDS011;1292;48.020;7.822;2022-10-16T18:10:24;1.83;;;1.73;;
2564;SDS011;1292;48.020;7.822;2022-10-16T18:12:51;6.07;;;2.20;;
2564;SDS011;1292;48.020;7.822;2022-10-16T18:15:18;2.20;;;2.00;;
2564;SDS011;1292;48.020;7.822;2022-10-16T18:17:46;2.10;;;1.90;;
2564;SDS011;1292;48.020;7.822;2022-10-16T18:20:12;3.47;;;2.00;;
2564;SDS011;1292;48.020;7.822;2022-10-16T18:22:39;2.63;;;2.27;;
2564;SDS011;1292;48.020;7.822;2022-10-16T18:25:06;2.20;;;2.03;;
2564;SDS011;1292;48.020;7.822;2022-10-16T18:27:34;4.33;;;1.80;;
2564;SDS011;1292;48.020;7.822;2022-10-16T18:30:01;2.60;;;1.97;;
2564;SDS011;1292;48.020;7.822;2022-10-16T18:32:28;4.13;;;2.20;;
2564;SDS011;1292;48.020;7.822;2022-10-16T18:34:56;2.30;;;2.10;;
2564;SDS011;1292;48.020;7.822;2022-10-16T18:37:23;8.90;;;2.33;;
2564;SDS011;1292;48.020;7.822;2022-10-16T18:39:50;3.43;;;2.40;;
2564;SDS011;1292;48.020;7.822;2022-10-16T18:42:17;5.60;;;2.13;;
2564;SDS011;1292;48.020;7.822;2022-10-16T18:44:44;3.63;;;1.80;;
2564;SDS011;1292;48.020;7.822;2022-10-16T18:47:11;12.33;;;2.97;;
2564;SDS011;1292;48.020;7.822;2022-10-16T18:49:38;2.40;;;2.20;;
2564;SDS011;1292;48.020;7.822;2022-10-16T18:52:06;2.30;;;1.93;;
2564;SDS011;1292;48.020;7.822;2022-10-16T18:54:33;5.03;;;2.43;;
2564;SDS011;1292;48.020;7.822;2022-10-16T18:57:01;2.80;;;2.10;;
2564;SDS011;1292;48.020;7.822;2022-10-16T18:59:28;8.10;;;2.30;;
2564;SDS011;1292;48.020;7.822;2022-10-16T19:01:55;5.13;;;2.90;;
2564;SDS011;1292;48.020;7.822;2022-10-16T19:04:22;7.10;;;2.40;;
2564;SDS011;1292;48.020;7.822;2022-10-16T19:06:50;2.37;;;2.17;;
2564;SDS011;1292;48.020;7.822;2022-10-16T19:09:20;4.07;;;2.43;;
2564;SDS011;1292;48.020;7.822;2022-10-16T19:11:49;2.93;;;2.63;;
2564;SDS011;1292;48.020;7.822;2022-10-16T19:14:16;4.80;;;1.93;;
2564;SDS011;1292;48.020;7.822;2022-10-16T19:16:45;4.83;;;2.40;;
2564;SDS011;1292;48.020;7.822;2022-10-16T19:19:15;3.63;;;2.70;;
2564;SDS011;1292;48.020;7.822;2022-10-16T19:21:43;11.13;;;2.70;;
2564;SDS011;1292;48.020;7.822;2022-10-16T19:24:12;5.20;;;3.43;;
2564;SDS011;1292;48.020;7.822;2022-10-16T19:26:42;3.50;;;2.17;;
2564;SDS011;1292;48.020;7.822;2022-10-16T19:29:09;5.47;;;2.93;;
2564;SDS011;1292;48.020;7.822;2022-10-16T19:31:36;12.03;;;2.80;;
2564;SDS011;1292;48.020;7.822;2022-10-16T19:34:03;12.13;;;3.03;;
2564;SDS011;1292;48.020;7.822;2022-10-16T19:36:32;24.07;;;5.70;;
2564;SDS011;1292;48.020;7.822;2022-10-16T19:39:01;11.10;;;3.10;;
2564;SDS011;1292;48.020;7.822;2022-10-16T19:41:29;16.30;;;3.70;;
2564;SDS011;1292;48.020;7.822;2022-10-16T19:44:00;10.17;;;3.60;;
2564;SDS011;1292;48.020;7.822;2022-10-16T19:46:29;12.20;;;3.10;;
2564;SDS011;1292;48.020;7.822;2022-10-16T19:48:57;9.67;;;3.87;;
2564;SDS011;1292;48.020;7.822;2022-10-16T19:51:26;11.07;;;3.73;;
2564;SDS011;1292;48.020;7.822;2022-10-16T19:53:55;7.83;;;3.43;;
2564;SDS011;1292;48.020;7.822;2022-10-16T19:56:25;5.60;;;3.50;;
2564;SDS011;1292;48.020;7.822;2022-10-16T19:58:53;8.70;;;3.23;;
2564;SDS011;1292;48.020;7.822;2022-10-16T20:01:23;12.20;;;4.03;;
2564;SDS011;1292;48.020;7.822;2022-10-16T20:03:51;6.20;;;3.60;;
2564;SDS011;1292;48.020;7.822;2022-10-16T20:06:18;12.10;;;3.30;;
2564;SDS011;1292;48.020;7.822;2022-10-16T20:08:46;7.70;;;3.50;;
2564;SDS011;1292;48.020;7.822;2022-10-16T20:11:17;9.53;;;3.73;;
2564;SDS011;1292;48.020;7.822;2022-10-16T20:13:44;7.57;;;3.17;;
2564;SDS011;1292;48.020;7.822;2022-10-16T20:16:12;6.67;;;2.93;;
2564;SDS011;1292;48.020;7.822;2022-10-16T20:18:41;9.43;;;2.90;;
2564;SDS011;1292;48.020;7.822;2022-10-16T20:21:08;5.90;;;2.90;;
2564;SDS011;1292;48.020;7.822;2022-10-16T20:23:36;10.10;;;3.70;;
2564;SDS011;1292;48.020;7.822;2022-10-16T20:26:03;7.90;;;3.90;;
2564;SDS011;1292;48.020;7.822;2022-10-16T20:28:30;5.60;;;3.37;;
2564;SDS011;1292;48.020;7.822;2022-10-16T20:30:57;8.50;;;2.97;;
2564;SDS011;1292;48.020;7.822;2022-10-16T20:33:30;8.20;;;4.47;;
2564;SDS011;1292;48.020;7.822;2022-10-16T20:35:59;9.67;;;3.60;;
2564;SDS011;1292;48.020;7.822;2022-10-16T20:38:26;5.60;;;3.07;;
2564;SDS011;1292;48.020;7.822;2022-10-16T20:40:53;9.03;;;3.70;;
2564;SDS011;1292;48.020;7.822;2022-10-16T20:43:20;3.47;;;3.13;;
2564;SDS011;1292;48.020;7.822;2022-10-16T20:45:47;7.60;;;3.00;;
2564;SDS011;1292;48.020;7.822;2022-10-16T20:48:24;6.07;;;3.07;;
2564;SDS011;1292;48.020;7.822;2022-10-16T20:50:51;3.70;;;2.63;;
2564;SDS011;1292;48.020;7.822;2022-10-16T20:53:20;20.60;;;2.73;;
2564;SDS011;1292;48.020;7.822;2022-10-16T20:55:47;4.37;;;3.10;;
2564;SDS011;1292;48.020;7.822;2022-10-16T20:58:14;5.13;;;3.23;;
